Time;durP1;ratioP1;P1;durP2;ratioP2;P2;SDS_P1;SDS_P2;PMS_P1;PMS_P2;Temp;Humidity;BMP_temperature;BMP_pressure;BME280_temperature;BME280_humidity;BME280_pressure;Samples;Min_cycle;Max_cycle;Signal;HPM_P1;HPM_P2
2021/09/27 00:01:17;;;;;;;;;;;12.90;99.90;;;;;;5093050;28;20401;-77
2021/09/27 00:03:43;;;;;;;;;;;12.90;99.90;;;;;;5094096;28;19912;-74
2021/09/27 00:06:09;;;;;;;;;;;12.90;99.90;;;;;;5094126;28;19955;-75
2021/09/27 00:08:35;;;;;;;;;;;12.90;99.90;;;;;;5094315;28;19934;-76
2021/09/27 00:11:03;;;;;;;;;;;12.90;99.90;;;;;;5093942;28;19908;-75
2021/09/27 00:13:30;;;;;;;;;;;12.90;99.90;;;;;;5092925;28;19908;-77
2021/09/27 00:15:57;;;;;;;;;;;12.90;99.90;;;;;;5093560;28;19962;-76
2021/09/27 00:18:22;;;;;;;;;;;13.00;99.90;;;;;;5094133;28;19916;-77
2021/09/27 00:20:52;;;;;;;;;;;13.00;99.90;;;;;;5093938;28;19912;-77
2021/09/27 00:23:18;;;;;;;;;;;13.00;99.90;;;;;;5093859;28;19909;-77
2021/09/27 00:25:43;;;;;;;;;;;12.90;99.90;;;;;;5093327;28;19908;-77
2021/09/27 00:28:09;;;;;;;;;;;12.90;99.90;;;;;;5093822;28;19909;-75
2021/09/27 00:30:35;;;;;;;;;;;12.70;99.90;;;;;;5092955;28;20074;-76
2021/09/27 00:33:00;;;;;;;;;;;12.60;99.90;;;;;;5093994;28;19908;-76
2021/09/27 00:35:27;;;;;;;;;;;12.60;99.90;;;;;;5093474;28;19939;-77
2021/09/27 00:37:53;;;;;;;;;;;12.60;99.90;;;;;;5093659;28;19912;-77
2021/09/27 00:40:21;;;;;;;;;;;12.60;99.90;;;;;;5093497;28;19912;-77
2021/09/27 00:42:48;;;;;;;;;;;12.70;99.90;;;;;;5092209;28;20378;-77
2021/09/27 00:45:15;;;;;;;;;;;12.80;99.90;;;;;;5093068;28;19912;-75
2021/09/27 00:47:40;;;;;;;;;;;12.80;99.90;;;;;;5093416;28;19961;-76
2021/09/27 00:50:07;;;;;;;;;;;12.70;99.90;;;;;;5092143;28;19908;-75
2021/09/27 00:55:00;;;;;;;;;;;12.60;99.90;;;;;;5067970;28;20333;-85
2021/09/27 00:57:26;;;;;;;;;;;12.60;99.90;;;;;;5066990;28;19917;-85
2021/09/27 00:59:53;;;;;;;;;;;12.40;99.90;;;;;;5059839;28;19939;-85
2021/09/27 01:02:19;;;;;;;;;;;12.40;99.90;;;;;;5049449;28;19908;-85
2021/09/27 01:04:45;;;;;;;;;;;12.40;99.90;;;;;;5058161;28;19909;-86
2021/09/27 01:07:30;;;;;;;;;;;12.40;99.90;;;;;;5051513;28;20236;-86
2021/09/27 01:10:12;;;;;;;;;;;12.30;99.90;;;;;;5045417;28;19920;-85
2021/09/27 01:12:58;;;;;;;;;;;12.40;99.90;;;;;;5054410;28;19955;-86
2021/09/27 01:15:37;;;;;;;;;;;12.60;99.90;;;;;;5056082;28;20287;-85
2021/09/27 01:18:21;;;;;;;;;;;12.50;99.90;;;;;;5056076;28;19909;-85
2021/09/27 01:21:08;;;;;;;;;;;12.60;99.90;;;;;;5046191;28;20367;-85
2021/09/27 01:23:33;;;;;;;;;;;12.80;99.90;;;;;;5041180;28;19913;-85
2021/09/27 01:26:17;;;;;;;;;;;12.90;99.90;;;;;;5055455;28;19959;-85
2021/09/27 01:28:45;;;;;;;;;;;13.00;99.90;;;;;;5089192;28;19915;-85
2021/09/27 01:31:23;;;;;;;;;;;13.10;99.90;;;;;;5063387;28;19915;-86
2021/09/27 01:33:57;;;;;;;;;;;13.00;99.90;;;;;;5047512;28;19909;-85
2021/09/27 01:36:32;;;;;;;;;;;13.00;99.90;;;;;;5055497;28;19916;-86
2021/09/27 01:39:03;;;;;;;;;;;12.90;99.90;;;;;;5049785;28;19908;-86
2021/09/27 01:41:32;;;;;;;;;;;12.80;99.90;;;;;;5055416;28;20259;-86
2021/09/27 01:44:16;;;;;;;;;;;12.80;99.90;;;;;;5055004;28;19924;-84
2021/09/27 01:46:45;;;;;;;;;;;12.80;99.90;;;;;;5055475;28;20260;-87
2021/09/27 01:49:14;;;;;;;;;;;12.80;99.90;;;;;;5088913;28;19915;-86
2021/09/27 01:51:51;;;;;;;;;;;12.70;99.90;;;;;;5044480;28;19999;-85
2021/09/27 01:54:21;;;;;;;;;;;12.70;99.90;;;;;;5075502;28;19962;-86
2021/09/27 01:56:50;;;;;;;;;;;12.70;99.90;;;;;;5053743;28;19917;-86
2021/09/27 01:59:15;;;;;;;;;;;12.70;99.90;;;;;;5036007;28;19912;-86
2021/09/27 02:01:41;;;;;;;;;;;12.60;99.90;;;;;;5035949;28;20011;-85
2021/09/27 02:04:10;;;;;;;;;;;12.50;99.90;;;;;;5040889;28;19908;-85
2021/09/27 02:06:45;;;;;;;;;;;12.50;99.90;;;;;;5048555;28;19920;-86
2021/09/27 02:09:26;;;;;;;;;;;12.40;99.90;;;;;;5055317;28;19908;-86
2021/09/27 02:11:54;;;;;;;;;;;12.30;99.90;;;;;;5053171;28;19916;-86
2021/09/27 02:14:23;;;;;;;;;;;12.50;99.90;;;;;;5037313;28;20304;-86
2021/09/27 02:17:00;;;;;;;;;;;12.50;99.90;;;;;;5088379;28;19909;-86
2021/09/27 02:19:32;;;;;;;;;;;12.50;99.90;;;;;;5054963;28;19908;-85
2021/09/27 02:22:24;;;;;;;;;;;12.40;99.90;;;;;;5057261;28;19913;-86
2021/09/27 02:24:54;;;;;;;;;;;12.40;99.90;;;;;;5051599;28;19909;-87
2021/09/27 02:27:20;;;;;;;;;;;12.40;99.90;;;;;;5048526;28;19953;-86
2021/09/27 02:29:45;;;;;;;;;;;12.30;99.90;;;;;;5052989;28;20008;-87
2021/09/27 02:32:46;;;;;;;;;;;12.30;99.90;;;;;;5048348;28;19908;-86
2021/09/27 02:35:15;;;;;;;;;;;12.30;99.90;;;;;;4986561;28;20497;-86
2021/09/27 02:37:41;;;;;;;;;;;12.40;99.90;;;;;;5044573;28;19908;-87
2021/09/27 02:40:11;;;;;;;;;;;12.50;99.90;;;;;;5035200;28;19936;-87
2021/09/27 02:42:46;;;;;;;;;;;12.50;99.90;;;;;;5034874;28;19982;-86
2021/09/27 02:45:11;;;;;;;;;;;12.50;99.90;;;;;;5072233;28;20366;-86
2021/09/27 02:47:46;;;;;;;;;;;12.50;99.90;;;;;;5035360;28;19915;-87
2021/09/27 02:50:14;;;;;;;;;;;12.50;99.90;;;;;;5044138;28;19908;-87
2021/09/27 02:52:39;;;;;;;;;;;12.50;99.90;;;;;;5052166;28;19909;-87
2021/09/27 02:55:06;;;;;;;;;;;12.50;99.90;;;;;;5057926;28;20008;-89
2021/09/27 02:57:44;;;;;;;;;;;12.50;99.90;;;;;;5048275;28;19916;-87
2021/09/27 03:00:39;;;;;;;;;;;12.70;99.90;;;;;;5043041;28;19924;-87
2021/09/27 03:03:14;;;;;;;;;;;12.80;99.90;;;;;;5037927;28;19962;-87
2021/09/27 03:05:48;;;;;;;;;;;13.00;99.90;;;;;;5067460;28;19916;-86
2021/09/27 03:08:21;;;;;;;;;;;13.10;99.90;;;;;;5062603;28;19909;-87
2021/09/27 03:11:00;;;;;;;;;;;13.10;99.90;;;;;;5072271;28;19916;-86
2021/09/27 03:13:44;;;;;;;;;;;13.20;99.90;;;;;;5053953;28;19920;-87
2021/09/27 03:16:19;;;;;;;;;;;13.20;99.90;;;;;;5087276;28;20382;-86
2021/09/27 03:18:59;;;;;;;;;;;13.30;99.90;;;;;;5054011;28;19999;-86
2021/09/27 03:21:37;;;;;;;;;;;13.30;99.90;;;;;;5045346;28;19935;-87
2021/09/27 03:24:05;;;;;;;;;;;13.40;99.90;;;;;;5052766;28;19912;-86
2021/09/27 03:26:36;;;;;;;;;;;13.30;99.90;;;;;;5034710;28;19913;-87
2021/09/27 03:29:21;;;;;;;;;;;13.40;99.90;;;;;;5034688;28;20015;-87
2021/09/27 03:32:12;;;;;;;;;;;13.30;99.90;;;;;;5050778;28;19916;-86
2021/09/27 03:34:38;;;;;;;;;;;13.30;99.90;;;;;;5046578;28;19908;-86
2021/09/27 03:37:03;;;;;;;;;;;13.20;99.90;;;;;;5087251;28;19908;-87
2021/09/27 03:39:48;;;;;;;;;;;13.20;99.90;;;;;;5087232;28;20368;-87
2021/09/27 03:42:18;;;;;;;;;;;13.10;99.90;;;;;;5036381;28;19915;-87
2021/09/27 03:44:47;;;;;;;;;;;13.00;99.90;;;;;;5051986;28;19908;-86
2021/09/27 03:47:31;;;;;;;;;;;13.00;99.90;;;;;;5054142;28;19909;-87
2021/09/27 03:50:00;;;;;;;;;;;13.00;99.90;;;;;;5070221;28;19908;-87
2021/09/27 03:52:55;;;;;;;;;;;13.00;99.90;;;;;;5046307;28;19912;-87
2021/09/27 03:55:24;;;;;;;;;;;13.00;99.90;;;;;;5023920;28;19908;-87
2021/09/27 03:57:53;;;;;;;;;;;13.00;99.90;;;;;;5051629;28;19914;-87
2021/09/27 04:00:21;;;;;;;;;;;13.00;99.90;;;;;;5060196;28;19913;-87
2021/09/27 04:02:53;;;;;;;;;;;13.00;99.90;;;;;;5046994;28;19992;-87
2021/09/27 04:05:37;;;;;;;;;;;12.90;99.90;;;;;;5051642;28;19916;-87
2021/09/27 04:08:09;;;;;;;;;;;12.90;99.90;;;;;;5038050;28;19915;-87
2021/09/27 04:10:55;;;;;;;;;;;12.80;99.90;;;;;;5051127;28;19909;-87
2021/09/27 04:13:20;;;;;;;;;;;12.70;99.90;;;;;;5054086;28;20295;-87
2021/09/27 04:15:48;;;;;;;;;;;12.60;99.90;;;;;;5090522;28;19913;-87
2021/09/27 04:18:17;;;;;;;;;;;12.60;99.90;;;;;;5090458;28;20018;-87
2021/09/27 04:20:52;;;;;;;;;;;12.50;99.90;;;;;;5082522;28;19920;-87
2021/09/27 04:23:39;;;;;;;;;;;12.40;99.90;;;;;;5051798;28;19908;-87
2021/09/27 04:26:10;;;;;;;;;;;12.30;99.90;;;;;;5037768;28;19916;-87
2021/09/27 04:28:54;;;;;;;;;;;12.10;99.90;;;;;;5050696;28;19912;-86
2021/09/27 04:31:29;;;;;;;;;;;12.10;99.90;;;;;;5057212;28;19939;-87
2021/09/27 04:33:54;;;;;;;;;;;12.00;99.90;;;;;;5089767;28;19975;-88
2021/09/27 04:36:22;;;;;;;;;;;11.90;99.90;;;;;;5090197;28;20376;-87
2021/09/27 04:38:49;;;;;;;;;;;11.80;99.90;;;;;;5056698;28;20530;-87
2021/09/27 04:41:27;;;;;;;;;;;11.70;99.90;;;;;;5038983;28;20268;-87
2021/09/27 04:44:00;;;;;;;;;;;11.70;99.90;;;;;;5037073;28;20003;-87
2021/09/27 04:46:25;;;;;;;;;;;11.60;99.90;;;;;;5043815;28;19913;-87
2021/09/27 04:49:01;;;;;;;;;;;11.50;99.90;;;;;;5055011;28;19915;-87
2021/09/27 04:51:33;;;;;;;;;;;11.40;99.90;;;;;;5076573;28;20363;-87
2021/09/27 04:54:12;;;;;;;;;;;11.30;99.90;;;;;;5039536;28;20383;-87
2021/09/27 04:56:45;;;;;;;;;;;11.30;99.90;;;;;;5053315;28;19931;-87
2021/09/27 04:59:37;;;;;;;;;;;11.30;99.90;;;;;;5072702;28;20397;-87
2021/09/27 05:02:21;;;;;;;;;;;11.10;99.90;;;;;;5073082;28;20439;-86
2021/09/27 05:04:48;;;;;;;;;;;11.00;99.90;;;;;;5073976;28;19915;-86
2021/09/27 05:07:17;;;;;;;;;;;11.00;99.90;;;;;;5056025;28;19908;-87
2021/09/27 05:09:49;;;;;;;;;;;10.90;99.90;;;;;;5089861;28;19930;-86
2021/09/27 05:12:14;;;;;;;;;;;10.90;99.90;;;;;;5056632;28;19908;-87
2021/09/27 05:15:03;;;;;;;;;;;10.80;99.90;;;;;;5089533;28;20375;-87
2021/09/27 05:17:29;;;;;;;;;;;10.80;99.90;;;;;;5043684;28;19916;-86
2021/09/27 05:20:00;;;;;;;;;;;10.80;99.90;;;;;;5055436;28;19912;-87
2021/09/27 05:22:36;;;;;;;;;;;10.80;99.90;;;;;;5061151;28;19920;-86
2021/09/27 05:25:16;;;;;;;;;;;10.70;99.90;;;;;;5059645;28;19909;-87
2021/09/27 05:27:47;;;;;;;;;;;10.70;99.90;;;;;;5045906;28;19912;-87
2021/09/27 05:30:13;;;;;;;;;;;10.80;99.90;;;;;;5057311;28;19952;-87
2021/09/27 05:32:58;;;;;;;;;;;10.80;99.90;;;;;;5036313;28;19990;-87
2021/09/27 05:35:32;;;;;;;;;;;10.80;99.90;;;;;;5049482;28;19985;-87
2021/09/27 05:38:13;;;;;;;;;;;10.80;99.90;;;;;;5067629;28;20363;-88
2021/09/27 05:40:57;;;;;;;;;;;10.80;99.90;;;;;;5047926;28;19913;-88
2021/09/27 05:43:22;;;;;;;;;;;10.80;99.90;;;;;;5054150;28;19962;-88
2021/09/27 05:46:03;;;;;;;;;;;10.80;99.90;;;;;;5053212;28;19934;-88
2021/09/27 05:48:29;;;;;;;;;;;10.80;99.90;;;;;;5089025;28;19915;-88
2021/09/27 05:51:05;;;;;;;;;;;10.80;99.90;;;;;;5074820;28;19913;-88
2021/09/27 05:53:36;;;;;;;;;;;10.80;99.90;;;;;;5048901;28;19916;-87
2021/09/27 05:56:24;;;;;;;;;;;10.80;99.90;;;;;;5067404;28;19916;-88
2021/09/27 05:58:56;;;;;;;;;;;10.80;99.90;;;;;;5052351;28;19920;-87
2021/09/27 06:01:43;;;;;;;;;;;10.80;99.90;;;;;;5064066;28;19966;-86
2021/09/27 06:04:27;;;;;;;;;;;10.80;99.90;;;;;;5036240;28;20007;-87
2021/09/27 06:07:22;;;;;;;;;;;10.80;99.90;;;;;;5068423;28;19908;-87
2021/09/27 06:10:01;;;;;;;;;;;10.90;99.90;;;;;;5039458;28;19958;-88
2021/09/27 06:12:29;;;;;;;;;;;11.10;99.90;;;;;;5071062;28;19999;-87
2021/09/27 06:14:56;;;;;;;;;;;11.20;99.90;;;;;;5035722;28;20370;-87
2021/09/27 06:17:29;;;;;;;;;;;11.30;99.90;;;;;;5054277;28;20292;-88
2021/09/27 06:20:06;;;;;;;;;;;11.40;99.90;;;;;;5050143;28;19923;-86
2021/09/27 06:22:36;;;;;;;;;;;11.50;99.90;;;;;;5044075;28;20319;-85
2021/09/27 06:25:21;;;;;;;;;;;11.60;99.90;;;;;;5069496;28;19952;-87
2021/09/27 06:27:47;;;;;;;;;;;11.60;99.90;;;;;;5051241;28;19908;-85
2021/09/27 06:30:12;;;;;;;;;;;11.70;99.90;;;;;;5041469;28;19962;-83
2021/09/27 06:32:43;;;;;;;;;;;11.80;99.90;;;;;;5070579;28;19991;-86
2021/09/27 06:35:13;;;;;;;;;;;11.90;99.90;;;;;;5054663;28;19909;-88
2021/09/27 06:37:40;;;;;;;;;;;11.80;99.90;;;;;;5040024;28;19916;-86
2021/09/27 06:40:06;;;;;;;;;;;11.90;99.90;;;;;;5069539;28;19982;-87
2021/09/27 06:42:32;;;;;;;;;;;12.00;99.90;;;;;;5048333;28;19935;-87
2021/09/27 06:44:57;;;;;;;;;;;12.00;99.90;;;;;;5051700;28;19913;-87
2021/09/27 06:47:23;;;;;;;;;;;12.20;99.90;;;;;;5071283;28;20256;-88
2021/09/27 06:49:49;;;;;;;;;;;12.30;99.90;;;;;;5071753;28;20003;-87
2021/09/27 06:52:15;;;;;;;;;;;12.50;99.90;;;;;;5053721;28;19973;-88
2021/09/27 06:54:41;;;;;;;;;;;12.60;99.90;;;;;;5057383;28;19935;-87
2021/09/27 06:57:06;;;;;;;;;;;12.60;99.90;;;;;;5052341;28;19917;-87
2021/09/27 06:59:32;;;;;;;;;;;12.70;99.90;;;;;;5057605;28;20014;-87
2021/09/27 07:01:57;;;;;;;;;;;12.80;99.90;;;;;;5054839;28;19912;-88
2021/09/27 07:04:24;;;;;;;;;;;12.90;99.90;;;;;;5071138;28;19908;-87
2021/09/27 07:06:49;;;;;;;;;;;12.80;99.90;;;;;;5035045;28;20354;-87
2021/09/27 07:09:14;;;;;;;;;;;12.80;99.90;;;;;;5048368;28;19909;-85
2021/09/27 07:11:41;;;;;;;;;;;12.90;99.90;;;;;;5053276;28;19919;-88
2021/09/27 07:14:07;;;;;;;;;;;13.20;99.90;;;;;;5044305;28;19909;-89
2021/09/27 07:16:32;;;;;;;;;;;13.30;99.90;;;;;;5054173;28;19932;-89
2021/09/27 07:18:58;;;;;;;;;;;13.40;99.90;;;;;;5054238;28;20375;-87
2021/09/27 07:21:24;;;;;;;;;;;13.60;99.90;;;;;;5045578;28;19913;-87
2021/09/27 07:23:50;;;;;;;;;;;13.90;99.90;;;;;;5041790;28;19915;-87
2021/09/27 07:26:16;;;;;;;;;;;14.30;99.90;;;;;;5054406;28;19917;-87
2021/09/27 07:28:42;;;;;;;;;;;14.30;99.90;;;;;;5054945;28;19950;-88
2021/09/27 07:31:08;;;;;;;;;;;14.50;99.90;;;;;;5060124;28;19908;-88
2021/09/27 07:33:34;;;;;;;;;;;14.60;99.90;;;;;;5065775;28;19932;-87
2021/09/27 07:36:01;;;;;;;;;;;14.70;99.90;;;;;;5054764;28;20379;-89
2021/09/27 07:38:26;;;;;;;;;;;14.80;99.90;;;;;;5054529;28;19958;-89
2021/09/27 07:40:53;;;;;;;;;;;14.90;99.90;;;;;;5076218;28;19921;-87
2021/09/27 07:43:18;;;;;;;;;;;15.00;99.90;;;;;;5058770;28;20264;-89
2021/09/27 07:45:44;;;;;;;;;;;15.10;99.90;;;;;;5076438;28;19916;-88
2021/09/27 07:48:13;;;;;;;;;;;15.50;99.90;;;;;;5039385;28;19912;-86
2021/09/27 07:50:39;;;;;;;;;;;17.30;99.90;;;;;;5045202;28;19909;-86
2021/09/27 07:53:05;;;;;;;;;;;19.10;99.90;;;;;;5065099;28;19909;-87
2021/09/27 07:55:31;;;;;;;;;;;20.30;99.90;;;;;;5094675;28;20468;-87
2021/09/27 07:57:56;;;;;;;;;;;21.50;99.90;;;;;;5076983;28;19972;-88
2021/09/27 08:00:22;;;;;;;;;;;22.30;99.90;;;;;;5095175;28;19925;-88
2021/09/27 08:02:47;;;;;;;;;;;22.70;99.90;;;;;;5076417;28;19896;-87
2021/09/27 08:05:15;;;;;;;;;;;22.80;99.90;;;;;;5100755;28;19956;-87
2021/09/27 08:07:41;;;;;;;;;;;23.10;99.90;;;;;;5077068;28;19967;-87
2021/09/27 08:10:07;;;;;;;;;;;23.20;99.90;;;;;;5044604;28;19966;-87
2021/09/27 08:12:36;;;;;;;;;;;23.70;99.90;;;;;;5055795;28;19908;-87
2021/09/27 08:15:03;;;;;;;;;;;23.70;99.90;;;;;;5073547;28;19912;-88
2021/09/27 08:17:28;;;;;;;;;;;24.30;99.90;;;;;;5063486;28;19909;-88
2021/09/27 08:19:56;;;;;;;;;;;24.10;99.90;;;;;;5055202;28;19908;-87
2021/09/27 08:22:21;;;;;;;;;;;24.00;99.90;;;;;;5060262;28;19915;-88
2021/09/27 08:24:47;;;;;;;;;;;23.60;99.90;;;;;;5061592;28;19913;-88
2021/09/27 08:27:13;;;;;;;;;;;23.70;99.90;;;;;;5048531;28;19909;-88
2021/09/27 08:29:38;;;;;;;;;;;24.10;99.90;;;;;;5066068;28;19909;-88
2021/09/27 08:32:04;;;;;;;;;;;24.90;99.90;;;;;;5056663;28;20264;-87
2021/09/27 08:34:30;;;;;;;;;;;24.70;99.90;;;;;;5074222;28;20351;-89
2021/09/27 08:36:56;;;;;;;;;;;24.50;99.90;;;;;;5056533;28;20007;-87
2021/09/27 08:39:22;;;;;;;;;;;25.20;99.90;;;;;;5057009;28;19915;-87
2021/09/27 08:41:59;;;;;;;;;;;25.60;99.90;;;;;;5056248;28;19917;-86
2021/09/27 08:44:24;;;;;;;;;;;26.00;99.90;;;;;;5055996;28;19909;-89
2021/09/27 08:46:54;;;;;;;;;;;25.70;99.30;;;;;;5089796;28;19973;-88
2021/09/27 08:49:32;;;;;;;;;;;26.20;99.30;;;;;;5055999;28;19915;-86
2021/09/27 08:51:57;;;;;;;;;;;26.60;99.20;;;;;;5071810;28;19990;-88
2021/09/27 08:54:25;;;;;;;;;;;26.60;98.50;;;;;;5055333;28;20515;-86
2021/09/27 08:56:56;;;;;;;;;;;27.00;98.30;;;;;;5055481;28;19920;-86
2021/09/27 08:59:30;;;;;;;;;;;27.20;97.80;;;;;;5072756;28;20417;-86
2021/09/27 09:02:05;;;;;;;;;;;27.20;97.20;;;;;;5056057;28;19999;-87
2021/09/27 09:04:36;;;;;;;;;;;26.80;97.20;;;;;;5089153;28;19908;-86
2021/09/27 09:07:05;;;;;;;;;;;27.50;96.20;;;;;;5055906;28;19915;-87
2021/09/27 09:09:43;;;;;;;;;;;26.70;96.40;;;;;;5055695;28;20022;-87
2021/09/27 09:12:18;;;;;;;;;;;27.20;96.30;;;;;;5069848;28;20303;-89
2021/09/27 09:14:55;;;;;;;;;;;28.00;95.00;;;;;;5054561;28;19909;-87
2021/09/27 09:17:26;;;;;;;;;;;27.70;95.00;;;;;;5056258;28;19970;-87
2021/09/27 09:19:52;;;;;;;;;;;28.70;93.80;;;;;;5055003;28;19909;-87
2021/09/27 09:22:24;;;;;;;;;;;29.10;93.90;;;;;;5035689;28;20292;-86
2021/09/27 09:24:50;;;;;;;;;;;28.80;93.10;;;;;;5063514;28;19908;-87
2021/09/27 09:27:15;;;;;;;;;;;29.70;92.20;;;;;;5073437;28;19919;-87
2021/09/27 09:29:44;;;;;;;;;;;28.90;92.60;;;;;;5052685;28;19909;-86
2021/09/27 09:32:09;;;;;;;;;;;29.30;92.90;;;;;;5069534;28;20322;-87
2021/09/27 09:34:35;;;;;;;;;;;29.90;91.00;;;;;;5089075;28;19913;-86
2021/09/27 09:37:07;;;;;;;;;;;29.30;91.40;;;;;;5036150;28;19999;-87
2021/09/27 09:39:35;;;;;;;;;;;30.00;90.80;;;;;;5067128;28;19915;-86
2021/09/27 09:42:06;;;;;;;;;;;30.20;89.60;;;;;;5041857;28;19913;-86
2021/09/27 09:44:39;;;;;;;;;;;29.80;89.60;;;;;;5042746;28;19914;-87
2021/09/27 09:47:05;;;;;;;;;;;30.30;87.90;;;;;;5049368;28;19915;-86
2021/09/27 09:49:51;;;;;;;;;;;29.70;88.40;;;;;;5036145;28;20291;-88
2021/09/27 09:52:42;;;;;;;;;;;28.90;89.80;;;;;;5048601;28;20372;-86
2021/09/27 09:55:22;;;;;;;;;;;26.80;92.40;;;;;;5057605;28;20280;-86
2021/09/27 09:58:02;;;;;;;;;;;26.70;92.50;;;;;;5049031;28;19962;-87
2021/09/27 10:00:35;;;;;;;;;;;28.70;91.50;;;;;;5053494;28;19912;-86
2021/09/27 10:03:01;;;;;;;;;;;29.80;89.10;;;;;;5040620;28;19916;-86
2021/09/27 10:05:34;;;;;;;;;;;29.00;87.60;;;;;;5071087;28;19909;-86
2021/09/27 10:08:03;;;;;;;;;;;27.50;91.10;;;;;;5054660;28;19915;-87
2021/09/27 10:10:32;;;;;;;;;;;27.00;92.10;;;;;;5049104;28;19954;-87
2021/09/27 10:12:58;;;;;;;;;;;26.40;91.90;;;;;;5035178;28;20574;-86
2021/09/27 10:15:26;;;;;;;;;;;26.70;92.90;;;;;;5053886;28;19909;-87
2021/09/27 10:18:03;;;;;;;;;;;26.80;93.40;;;;;;5068922;28;19909;-87
2021/09/27 10:20:39;;;;;;;;;;;28.60;90.40;;;;;;5053943;28;19958;-87
2021/09/27 10:23:11;;;;;;;;;;;28.60;90.50;;;;;;5045192;28;19908;-87
2021/09/27 10:25:47;;;;;;;;;;;29.10;88.50;;;;;;5043827;28;19995;-87
2021/09/27 10:28:13;;;;;;;;;;;29.90;88.70;;;;;;5051178;28;19916;-87
2021/09/27 10:30:39;;;;;;;;;;;27.40;89.90;;;;;;5048283;28;19916;-86
2021/09/27 10:33:14;;;;;;;;;;;24.90;93.70;;;;;;5055769;28;19908;-87
2021/09/27 10:35:46;;;;;;;;;;;23.70;96.30;;;;;;5054477;28;19962;-87
2021/09/27 10:38:48;;;;;;;;;;;23.20;96.80;;;;;;5041676;28;19909;-87
2021/09/27 10:41:18;;;;;;;;;;;23.10;97.90;;;;;;4993554;28;19920;-88
2021/09/27 10:43:45;;;;;;;;;;;24.40;95.90;;;;;;5043711;28;19913;-86
2021/09/27 10:46:10;;;;;;;;;;;24.50;96.50;;;;;;5044787;28;19920;-86
2021/09/27 10:48:39;;;;;;;;;;;23.20;97.10;;;;;;5044031;28;19909;-89
2021/09/27 10:51:06;;;;;;;;;;;22.70;97.80;;;;;;5044575;28;19916;-87
2021/09/27 10:53:34;;;;;;;;;;;23.20;97.80;;;;;;5055537;28;20392;-86
2021/09/27 10:56:22;;;;;;;;;;;24.10;97.20;;;;;;5055326;28;19924;-86
2021/09/27 10:58:56;;;;;;;;;;;26.00;95.50;;;;;;5045167;28;19909;-87
2021/09/27 11:01:40;;;;;;;;;;;29.40;90.00;;;;;;5050970;28;19913;-87
2021/09/27 11:04:10;;;;;;;;;;;29.00;89.70;;;;;;5061585;28;19965;-87
2021/09/27 11:06:41;;;;;;;;;;;27.70;91.70;;;;;;5053888;28;19908;-88
2021/09/27 11:09:11;;;;;;;;;;;28.40;89.30;;;;;;5044672;28;19913;-87
2021/09/27 11:11:39;;;;;;;;;;;30.40;84.50;;;;;;5047532;28;19920;-86
2021/09/27 11:14:32;;;;;;;;;;;30.50;82.50;;;;;;5063360;28;19916;-86
2021/09/27 11:17:10;;;;;;;;;;;31.70;79.00;;;;;;5024764;28;19909;-87
2021/09/27 11:19:40;;;;;;;;;;;30.70;78.00;;;;;;5041735;28;20333;-86
2021/09/27 11:22:18;;;;;;;;;;;28.70;86.40;;;;;;5040723;28;19916;-86
2021/09/27 11:24:43;;;;;;;;;;;26.70;91.30;;;;;;5067631;28;20439;-87
2021/09/27 11:27:12;;;;;;;;;;;25.50;91.60;;;;;;5080523;28;19951;-87
2021/09/27 11:29:37;;;;;;;;;;;25.40;93.40;;;;;;5077464;28;19931;-85
2021/09/27 11:32:22;;;;;;;;;;;24.10;95.20;;;;;;5050610;28;20369;-85
2021/09/27 11:35:02;;;;;;;;;;;23.40;96.10;;;;;;5059686;28;20372;-86
2021/09/27 11:37:30;;;;;;;;;;;23.70;95.60;;;;;;5051289;28;19916;-86
2021/09/27 11:40:08;;;;;;;;;;;25.30;93.70;;;;;;5069758;28;19952;-84
2021/09/27 11:42:43;;;;;;;;;;;26.30;93.10;;;;;;5078628;28;19908;-87
2021/09/27 11:45:44;;;;;;;;;;;25.70;92.70;;;;;;5060398;28;19943;-85
2021/09/27 11:48:13;;;;;;;;;;;24.30;94.40;;;;;;4992228;28;20643;-86
2021/09/27 11:50:47;;;;;;;;;;;23.90;97.00;;;;;;5046190;28;19908;-85
2021/09/27 11:53:31;;;;;;;;;;;23.60;96.60;;;;;;5046260;28;19950;-85
2021/09/27 11:56:15;;;;;;;;;;;23.10;97.00;;;;;;5051335;28;19924;-86
2021/09/27 11:58:40;;;;;;;;;;;23.20;96.70;;;;;;5062036;28;19908;-85
2021/09/27 12:01:11;;;;;;;;;;;23.00;96.90;;;;;;5046033;28;19924;-85
2021/09/27 12:03:52;;;;;;;;;;;23.40;97.60;;;;;;5042235;28;19958;-86
2021/09/27 12:06:33;;;;;;;;;;;23.50;97.70;;;;;;5074958;28;19919;-85
2021/09/27 12:09:07;;;;;;;;;;;23.10;95.70;;;;;;5044488;28;19912;-86
2021/09/27 12:11:34;;;;;;;;;;;23.30;97.70;;;;;;5069003;28;20552;-85
2021/09/27 12:14:01;;;;;;;;;;;23.40;96.70;;;;;;5070860;28;19908;-88
2021/09/27 12:16:36;;;;;;;;;;;23.10;96.80;;;;;;5053646;28;20427;-85
2021/09/27 12:19:22;;;;;;;;;;;23.10;96.00;;;;;;5053326;28;19970;-85
2021/09/27 12:21:50;;;;;;;;;;;23.10;98.30;;;;;;5035271;28;19920;-84
2021/09/27 12:24:15;;;;;;;;;;;23.20;97.50;;;;;;5042306;28;19983;-86
2021/09/27 12:26:42;;;;;;;;;;;23.10;96.70;;;;;;5066047;28;20355;-86
2021/09/27 12:29:08;;;;;;;;;;;22.80;97.90;;;;;;5056670;28;19940;-85
2021/09/27 12:31:34;;;;;;;;;;;22.40;98.30;;;;;;5076383;28;20006;-84
2021/09/27 12:34:07;;;;;;;;;;;22.20;99.00;;;;;;5050383;28;20291;-84
2021/09/27 12:36:33;;;;;;;;;;;21.80;98.60;;;;;;5050783;28;19912;-86
2021/09/27 12:38:58;;;;;;;;;;;21.50;99.60;;;;;;5050328;28;20438;-85
2021/09/27 12:41:25;;;;;;;;;;;21.30;99.00;;;;;;5050262;28;19913;-84
2021/09/27 12:43:50;;;;;;;;;;;21.30;99.90;;;;;;5050839;28;20291;-85
2021/09/27 12:46:19;;;;;;;;;;;21.40;99.50;;;;;;5055930;28;19913;-85
2021/09/27 12:48:49;;;;;;;;;;;21.50;99.60;;;;;;5043679;28;20330;-85
2021/09/27 12:51:19;;;;;;;;;;;21.60;99.60;;;;;;5043601;28;19909;-84
2021/09/27 12:53:47;;;;;;;;;;;21.90;99.00;;;;;;5060903;28;19909;-85
2021/09/27 12:56:14;;;;;;;;;;;22.10;99.20;;;;;;5043410;28;19967;-84
2021/09/27 12:58:43;;;;;;;;;;;22.10;97.90;;;;;;5050051;28;19948;-84
2021/09/27 13:01:11;;;;;;;;;;;22.00;99.90;;;;;;5045129;28;19913;-85
2021/09/27 13:03:40;;;;;;;;;;;21.80;99.90;;;;;;5073531;28;19908;-85
2021/09/27 13:06:13;;;;;;;;;;;22.10;99.90;;;;;;5073801;28;20361;-86
2021/09/27 13:08:50;;;;;;;;;;;22.10;99.20;;;;;;5046605;28;19920;-85
2021/09/27 13:11:22;;;;;;;;;;;22.20;99.90;;;;;;5043642;28;20253;-86
2021/09/27 13:14:01;;;;;;;;;;;22.10;99.00;;;;;;5054211;28;20011;-85
2021/09/27 13:16:31;;;;;;;;;;;21.80;98.90;;;;;;5076371;28;19915;-85
2021/09/27 13:18:57;;;;;;;;;;;21.90;99.80;;;;;;5067332;28;19908;-85
2021/09/27 13:21:28;;;;;;;;;;;21.80;99.90;;;;;;5060735;28;19920;-85
2021/09/27 13:24:04;;;;;;;;;;;21.70;98.90;;;;;;5065835;28;19940;-86
2021/09/27 13:26:38;;;;;;;;;;;21.60;99.70;;;;;;5055599;28;19931;-84
2021/09/27 13:29:18;;;;;;;;;;;21.60;99.90;;;;;;5073535;28;20312;-87
2021/09/27 13:31:58;;;;;;;;;;;21.50;99.00;;;;;;5056382;28;19908;-84
2021/09/27 13:34:32;;;;;;;;;;;21.40;99.50;;;;;;5049005;28;19958;-85
2021/09/27 13:36:58;;;;;;;;;;;21.40;98.70;;;;;;5053812;28;19909;-85
2021/09/27 13:39:27;;;;;;;;;;;21.40;98.90;;;;;;5053995;28;19909;-85
2021/09/27 13:42:04;;;;;;;;;;;21.40;99.60;;;;;;5049060;28;19912;-84
2021/09/27 13:44:32;;;;;;;;;;;21.60;99.70;;;;;;5072746;28;19916;-85
2021/09/27 13:46:58;;;;;;;;;;;21.60;99.70;;;;;;5080509;28;19909;-85
2021/09/27 13:49:24;;;;;;;;;;;21.60;99.10;;;;;;5044059;28;19915;-85
2021/09/27 13:51:49;;;;;;;;;;;21.50;99.60;;;;;;5057180;28;20391;-85
2021/09/27 13:54:15;;;;;;;;;;;21.50;99.90;;;;;;5065202;28;19908;-87
2021/09/27 13:56:40;;;;;;;;;;;21.50;99.90;;;;;;5055498;28;20355;-85
2021/09/27 13:59:07;;;;;;;;;;;21.50;99.60;;;;;;5048802;28;20300;-85
2021/09/27 14:01:33;;;;;;;;;;;21.50;99.90;;;;;;5061481;28;19960;-85
2021/09/27 14:03:58;;;;;;;;;;;21.60;99.90;;;;;;5057821;28;19956;-85
2021/09/27 14:06:25;;;;;;;;;;;21.60;99.90;;;;;;5055095;28;19908;-85
2021/09/27 14:08:51;;;;;;;;;;;21.90;99.90;;;;;;5088778;28;20291;-85
2021/09/27 14:11:16;;;;;;;;;;;21.80;99.70;;;;;;5035653;28;19917;-85
2021/09/27 14:13:42;;;;;;;;;;;21.80;99.80;;;;;;5042266;28;19909;-85
2021/09/27 14:16:09;;;;;;;;;;;21.80;99.90;;;;;;5066528;28;19987;-85
2021/09/27 14:18:36;;;;;;;;;;;21.60;99.90;;;;;;5053524;28;19909;-84
2021/09/27 14:21:02;;;;;;;;;;;21.50;99.90;;;;;;5048223;28;19913;-84
2021/09/27 14:23:28;;;;;;;;;;;21.40;99.90;;;;;;5053575;28;19916;-83
2021/09/27 14:25:53;;;;;;;;;;;21.40;99.90;;;;;;5072359;28;19908;-85
2021/09/27 14:28:21;;;;;;;;;;;21.40;99.90;;;;;;5054553;28;19935;-84
2021/09/27 14:30:46;;;;;;;;;;;21.40;99.90;;;;;;5054811;28;19976;-85
2021/09/27 14:33:12;;;;;;;;;;;21.40;99.90;;;;;;5035741;28;19948;-85
2021/09/27 14:35:38;;;;;;;;;;;21.30;99.90;;;;;;5045095;28;19966;-85
2021/09/27 14:38:05;;;;;;;;;;;21.20;99.90;;;;;;5052910;28;19909;-84
2021/09/27 14:40:31;;;;;;;;;;;21.20;99.90;;;;;;5050936;28;19959;-84
2021/09/27 14:42:57;;;;;;;;;;;21.20;99.90;;;;;;5054601;28;19916;-84